Terminal Aerodrome Forecast
Issued by NWS St Louis, MO

Home | Current Version | Previous Version | Text Only | Print | Product List | Glossary On
Versions: 1 2 3 4 5 6 7 8 9 10 11 12 13 14
000
FTUS43 KLSX 211120
TAFCOU
TAF
KCOU 211120Z 2112/2212 05007KT P6SM SCT200
     FM211500 06011G19KT P6SM BKN200
     FM212000 05013KT P6SM BKN200=

USA.gov is the U.S. government's official web portal to all federal, state and local government web resources and services.